sensor_id;sensor_type;location;lat;lon;timestamp;temperature;humidity
26304;DHT22;70693;48.680;8.890;2023-06-26T00:00:02;21.70;99.90
26304;DHT22;70693;48.680;8.890;2023-06-26T00:02:30;21.70;99.90
26304;DHT22;70693;48.680;8.890;2023-06-26T00:04:58;21.80;99.90
26304;DHT22;70693;48.680;8.890;2023-06-26T00:07:28;21.70;99.90
26304;DHT22;70693;48.680;8.890;2023-06-26T00:09:54;21.70;99.90
26304;DHT22;70693;48.680;8.890;2023-06-26T00:12:19;21.70;99.90
26304;DHT22;70693;48.680;8.890;2023-06-26T00:14:45;21.70;99.90
26304;DHT22;70693;48.680;8.890;2023-06-26T00:17:11;21.70;99.90
26304;DHT22;70693;48.680;8.890;2023-06-26T00:19:37;21.70;99.90
26304;DHT22;70693;48.680;8.890;2023-06-26T00:22:02;21.70;99.90
26304;DHT22;70693;48.680;8.890;2023-06-26T00:24:28;21.80;99.90
26304;DHT22;70693;48.680;8.890;2023-06-26T00:26:54;21.70;99.90
26304;DHT22;70693;48.680;8.890;2023-06-26T00:29:19;21.70;99.90
26304;DHT22;70693;48.680;8.890;2023-06-26T00:31:45;21.70;99.90
26304;DHT22;70693;48.680;8.890;2023-06-26T00:34:10;21.70;99.90
26304;DHT22;70693;48.680;8.890;2023-06-26T00:36:36;21.70;99.90
26304;DHT22;70693;48.680;8.890;2023-06-26T00:39:02;21.70;99.90
26304;DHT22;70693;48.680;8.890;2023-06-26T00:41:29;21.70;99.90
26304;DHT22;70693;48.680;8.890;2023-06-26T00:43:54;21.70;99.90
26304;DHT22;70693;48.680;8.890;2023-06-26T00:46:20;21.70;99.90
26304;DHT22;70693;48.680;8.890;2023-06-26T00:48:47;21.70;99.90
26304;DHT22;70693;48.680;8.890;2023-06-26T00:51:13;21.70;99.90
26304;DHT22;70693;48.680;8.890;2023-06-26T00:53:39;21.70;99.90
26304;DHT22;70693;48.680;8.890;2023-06-26T00:56:05;21.70;99.90
26304;DHT22;70693;48.680;8.890;2023-06-26T00:58:31;21.70;99.90
26304;DHT22;70693;48.680;8.890;2023-06-26T01:00:57;21.70;99.90
26304;DHT22;70693;48.680;8.890;2023-06-26T01:03:24;21.70;99.90
26304;DHT22;70693;48.680;8.890;2023-06-26T01:05:52;21.60;99.90
26304;DHT22;70693;48.680;8.890;2023-06-26T01:08:18;21.70;99.90
26304;DHT22;70693;48.680;8.890;2023-06-26T01:10:45;21.70;99.90
26304;DHT22;70693;48.680;8.890;2023-06-26T01:13:15;21.70;99.90
26304;DHT22;70693;48.680;8.890;2023-06-26T01:15:41;21.70;99.90
26304;DHT22;70693;48.680;8.890;2023-06-26T01:18:07;21.60;99.90
26304;DHT22;70693;48.680;8.890;2023-06-26T01:20:36;21.60;99.90
26304;DHT22;70693;48.680;8.890;2023-06-26T01:23:19;21.70;99.90
26304;DHT22;70693;48.680;8.890;2023-06-26T01:26:12;21.70;99.90
26304;DHT22;70693;48.680;8.890;2023-06-26T01:28:42;21.60;99.90
26304;DHT22;70693;48.680;8.890;2023-06-26T01:31:08;21.70;99.90
26304;DHT22;70693;48.680;8.890;2023-06-26T01:33:36;21.70;99.90
26304;DHT22;70693;48.680;8.890;2023-06-26T01:36:03;21.60;99.90
26304;DHT22;70693;48.680;8.890;2023-06-26T01:38:28;21.70;99.90
26304;DHT22;70693;48.680;8.890;2023-06-26T01:40:54;21.70;99.90
26304;DHT22;70693;48.680;8.890;2023-06-26T01:46:25;21.60;99.90
26304;DHT22;70693;48.680;8.890;2023-06-26T01:51:58;21.60;99.90
26304;DHT22;70693;48.680;8.890;2023-06-26T01:54:27;21.60;99.90
26304;DHT22;70693;48.680;8.890;2023-06-26T01:56:56;21.60;99.90
26304;DHT22;70693;48.680;8.890;2023-06-26T01:59:22;21.60;99.90
26304;DHT22;70693;48.680;8.890;2023-06-26T02:01:49;21.60;99.90
26304;DHT22;70693;48.680;8.890;2023-06-26T02:04:14;21.60;99.90
26304;DHT22;70693;48.680;8.890;2023-06-26T02:06:40;21.60;99.90
26304;DHT22;70693;48.680;8.890;2023-06-26T02:09:06;21.60;99.90
26304;DHT22;70693;48.680;8.890;2023-06-26T02:11:31;21.60;99.90
26304;DHT22;70693;48.680;8.890;2023-06-26T02:13:57;21.60;99.90
26304;DHT22;70693;48.680;8.890;2023-06-26T02:16:22;21.60;99.90
26304;DHT22;70693;48.680;8.890;2023-06-26T02:18:48;21.60;99.90
26304;DHT22;70693;48.680;8.890;2023-06-26T02:21:14;21.60;99.90
26304;DHT22;70693;48.680;8.890;2023-06-26T02:23:40;21.60;99.90
26304;DHT22;70693;48.680;8.890;2023-06-26T02:26:05;21.60;99.90
26304;DHT22;70693;48.680;8.890;2023-06-26T02:28:31;21.60;99.90
26304;DHT22;70693;48.680;8.890;2023-06-26T02:30:59;21.60;99.90
26304;DHT22;70693;48.680;8.890;2023-06-26T02:33:24;21.60;99.90
26304;DHT22;70693;48.680;8.890;2023-06-26T02:35:50;21.60;99.90
26304;DHT22;70693;48.680;8.890;2023-06-26T02:38:16;21.60;99.90
26304;DHT22;70693;48.680;8.890;2023-06-26T02:40:42;21.60;99.90
26304;DHT22;70693;48.680;8.890;2023-06-26T02:43:07;21.50;99.90
26304;DHT22;70693;48.680;8.890;2023-06-26T02:45:33;21.60;99.90
26304;DHT22;70693;48.680;8.890;2023-06-26T02:47:59;21.60;99.90
26304;DHT22;70693;48.680;8.890;2023-06-26T02:50:24;21.50;99.90
26304;DHT22;70693;48.680;8.890;2023-06-26T02:52:50;21.50;99.90
26304;DHT22;70693;48.680;8.890;2023-06-26T02:55:18;21.50;99.90
26304;DHT22;70693;48.680;8.890;2023-06-26T02:57:44;21.50;99.90
26304;DHT22;70693;48.680;8.890;2023-06-26T03:00:10;21.50;99.90
26304;DHT22;70693;48.680;8.890;2023-06-26T03:02:36;21.60;99.90
26304;DHT22;70693;48.680;8.890;2023-06-26T03:05:02;21.60;99.90
26304;DHT22;70693;48.680;8.890;2023-06-26T03:07:29;21.60;99.90
26304;DHT22;70693;48.680;8.890;2023-06-26T03:09:55;21.50;99.90
26304;DHT22;70693;48.680;8.890;2023-06-26T03:12:20;21.50;99.90
26304;DHT22;70693;48.680;8.890;2023-06-26T03:14:46;21.50;99.90
26304;DHT22;70693;48.680;8.890;2023-06-26T03:17:12;21.60;99.90
26304;DHT22;70693;48.680;8.890;2023-06-26T03:19:37;21.50;99.90
26304;DHT22;70693;48.680;8.890;2023-06-26T03:22:03;21.50;99.90
26304;DHT22;70693;48.680;8.890;2023-06-26T03:24:29;21.50;99.90
26304;DHT22;70693;48.680;8.890;2023-06-26T03:26:55;21.50;99.90
26304;DHT22;70693;48.680;8.890;2023-06-26T03:29:20;21.50;99.90
26304;DHT22;70693;48.680;8.890;2023-06-26T03:31:46;21.50;99.90
26304;DHT22;70693;48.680;8.890;2023-06-26T03:34:11;21.50;99.90
26304;DHT22;70693;48.680;8.890;2023-06-26T03:36:37;21.50;99.90
26304;DHT22;70693;48.680;8.890;2023-06-26T03:39:03;21.50;99.90
26304;DHT22;70693;48.680;8.890;2023-06-26T03:41:29;21.50;99.90
26304;DHT22;70693;48.680;8.890;2023-06-26T03:43:55;21.50;99.90
26304;DHT22;70693;48.680;8.890;2023-06-26T03:46:22;21.50;99.90
26304;DHT22;70693;48.680;8.890;2023-06-26T03:48:48;21.50;99.90
26304;DHT22;70693;48.680;8.890;2023-06-26T03:51:14;21.50;99.90
26304;DHT22;70693;48.680;8.890;2023-06-26T03:53:40;21.50;99.90
26304;DHT22;70693;48.680;8.890;2023-06-26T03:56:05;21.50;99.90
26304;DHT22;70693;48.680;8.890;2023-06-26T03:58:31;21.50;99.90
26304;DHT22;70693;48.680;8.890;2023-06-26T04:00:56;21.50;99.90
26304;DHT22;70693;48.680;8.890;2023-06-26T04:03:23;21.50;99.90
26304;DHT22;70693;48.680;8.890;2023-06-26T04:05:49;21.50;99.90
26304;DHT22;70693;48.680;8.890;2023-06-26T04:08:15;21.50;99.90
26304;DHT22;70693;48.680;8.890;2023-06-26T04:10:40;21.50;99.90
26304;DHT22;70693;48.680;8.890;2023-06-26T04:13:06;21.50;99.90
26304;DHT22;70693;48.680;8.890;2023-06-26T04:15:32;21.50;99.90
26304;DHT22;70693;48.680;8.890;2023-06-26T04:17:57;21.40;99.90
26304;DHT22;70693;48.680;8.890;2023-06-26T04:20:23;21.50;99.90
26304;DHT22;70693;48.680;8.890;2023-06-26T04:22:49;21.50;99.90
26304;DHT22;70693;48.680;8.890;2023-06-26T04:25:15;21.50;99.90
26304;DHT22;70693;48.680;8.890;2023-06-26T04:27:41;21.40;99.90
26304;DHT22;70693;48.680;8.890;2023-06-26T04:30:07;21.50;99.90
26304;DHT22;70693;48.680;8.890;2023-06-26T04:32:33;21.40;99.90
26304;DHT22;70693;48.680;8.890;2023-06-26T04:34:59;21.40;99.90
26304;DHT22;70693;48.680;8.890;2023-06-26T04:37:25;21.50;99.90
26304;DHT22;70693;48.680;8.890;2023-06-26T04:39:51;21.40;99.90
26304;DHT22;70693;48.680;8.890;2023-06-26T04:42:16;21.40;99.90
26304;DHT22;70693;48.680;8.890;2023-06-26T04:44:42;21.50;99.90
26304;DHT22;70693;48.680;8.890;2023-06-26T04:47:08;21.30;99.90
26304;DHT22;70693;48.680;8.890;2023-06-26T04:49:34;20.90;99.90
26304;DHT22;70693;48.680;8.890;2023-06-26T04:51:59;20.70;99.90
26304;DHT22;70693;48.680;8.890;2023-06-26T04:54:26;20.70;99.90
26304;DHT22;70693;48.680;8.890;2023-06-26T04:56:52;20.70;99.90
26304;DHT22;70693;48.680;8.890;2023-06-26T04:59:18;20.80;99.90
26304;DHT22;70693;48.680;8.890;2023-06-26T05:01:44;20.90;99.90
26304;DHT22;70693;48.680;8.890;2023-06-26T05:04:14;21.00;99.90
26304;DHT22;70693;48.680;8.890;2023-06-26T05:06:43;21.00;99.90
26304;DHT22;70693;48.680;8.890;2023-06-26T05:09:08;21.00;99.90
26304;DHT22;70693;48.680;8.890;2023-06-26T05:11:36;21.10;99.90
26304;DHT22;70693;48.680;8.890;2023-06-26T05:14:01;21.10;99.90
26304;DHT22;70693;48.680;8.890;2023-06-26T05:16:27;21.10;99.90
26304;DHT22;70693;48.680;8.890;2023-06-26T05:18:53;21.10;99.90
26304;DHT22;70693;48.680;8.890;2023-06-26T05:21:20;21.20;99.90
26304;DHT22;70693;48.680;8.890;2023-06-26T05:23:46;21.20;99.90
26304;DHT22;70693;48.680;8.890;2023-06-26T05:26:12;21.20;99.90
26304;DHT22;70693;48.680;8.890;2023-06-26T05:28:39;21.20;99.90
26304;DHT22;70693;48.680;8.890;2023-06-26T05:31:05;21.30;99.90
26304;DHT22;70693;48.680;8.890;2023-06-26T05:33:31;21.30;99.90
26304;DHT22;70693;48.680;8.890;2023-06-26T05:35:59;21.20;99.90
26304;DHT22;70693;48.680;8.890;2023-06-26T05:38:25;21.30;99.90
26304;DHT22;70693;48.680;8.890;2023-06-26T05:40:51;21.30;99.90
26304;DHT22;70693;48.680;8.890;2023-06-26T05:43:17;21.30;99.90
26304;DHT22;70693;48.680;8.890;2023-06-26T05:45:47;21.30;99.90
26304;DHT22;70693;48.680;8.890;2023-06-26T05:48:13;21.40;99.90
26304;DHT22;70693;48.680;8.890;2023-06-26T05:50:39;21.30;99.90
26304;DHT22;70693;48.680;8.890;2023-06-26T05:53:07;21.30;99.90
26304;DHT22;70693;48.680;8.890;2023-06-26T05:55:33;21.30;99.90
26304;DHT22;70693;48.680;8.890;2023-06-26T05:57:59;21.30;99.90
26304;DHT22;70693;48.680;8.890;2023-06-26T06:00:27;21.40;99.90
26304;DHT22;70693;48.680;8.890;2023-06-26T06:02:52;21.40;99.90
26304;DHT22;70693;48.680;8.890;2023-06-26T06:05:20;21.40;99.90
26304;DHT22;70693;48.680;8.890;2023-06-26T06:07:46;21.40;99.90
26304;DHT22;70693;48.680;8.890;2023-06-26T06:10:12;21.40;99.90
26304;DHT22;70693;48.680;8.890;2023-06-26T06:12:37;21.40;99.90
26304;DHT22;70693;48.680;8.890;2023-06-26T06:15:04;21.40;99.90
26304;DHT22;70693;48.680;8.890;2023-06-26T06:17:30;21.40;99.90
26304;DHT22;70693;48.680;8.890;2023-06-26T06:19:55;21.40;99.90
26304;DHT22;70693;48.680;8.890;2023-06-26T06:22:21;21.40;99.90
26304;DHT22;70693;48.680;8.890;2023-06-26T06:24:48;21.40;99.90
26304;DHT22;70693;48.680;8.890;2023-06-26T06:27:14;21.40;99.90
26304;DHT22;70693;48.680;8.890;2023-06-26T06:29:40;21.40;99.90
26304;DHT22;70693;48.680;8.890;2023-06-26T06:32:06;21.40;99.90
26304;DHT22;70693;48.680;8.890;2023-06-26T06:34:32;21.50;99.90
26304;DHT22;70693;48.680;8.890;2023-06-26T06:36:57;21.40;99.90
26304;DHT22;70693;48.680;8.890;2023-06-26T06:39:23;21.40;99.90
26304;DHT22;70693;48.680;8.890;2023-06-26T06:41:48;21.40;99.90
26304;DHT22;70693;48.680;8.890;2023-06-26T06:44:14;21.50;99.90
26304;DHT22;70693;48.680;8.890;2023-06-26T06:46:39;21.40;99.90
26304;DHT22;70693;48.680;8.890;2023-06-26T06:49:05;21.50;99.90
26304;DHT22;70693;48.680;8.890;2023-06-26T06:51:31;21.50;99.90
26304;DHT22;70693;48.680;8.890;2023-06-26T06:53:56;21.40;99.90
26304;DHT22;70693;48.680;8.890;2023-06-26T06:56:22;21.50;99.90
26304;DHT22;70693;48.680;8.890;2023-06-26T06:58:47;21.50;99.90
26304;DHT22;70693;48.680;8.890;2023-06-26T07:01:13;21.50;99.90
26304;DHT22;70693;48.680;8.890;2023-06-26T07:03:39;21.50;99.90
26304;DHT22;70693;48.680;8.890;2023-06-26T07:06:05;21.50;99.90
26304;DHT22;70693;48.680;8.890;2023-06-26T07:08:31;21.50;99.90
26304;DHT22;70693;48.680;8.890;2023-06-26T07:10:56;21.50;99.90
26304;DHT22;70693;48.680;8.890;2023-06-26T07:13:23;21.50;99.90
26304;DHT22;70693;48.680;8.890;2023-06-26T07:15:48;21.60;99.90
26304;DHT22;70693;48.680;8.890;2023-06-26T07:18:14;21.50;99.90
26304;DHT22;70693;48.680;8.890;2023-06-26T07:20:40;21.50;99.90
26304;DHT22;70693;48.680;8.890;2023-06-26T07:23:06;21.50;99.90
26304;DHT22;70693;48.680;8.890;2023-06-26T07:25:31;21.50;99.90
26304;DHT22;70693;48.680;8.890;2023-06-26T07:27:57;21.50;99.90
26304;DHT22;70693;48.680;8.890;2023-06-26T07:30:23;21.60;99.90
26304;DHT22;70693;48.680;8.890;2023-06-26T07:32:50;21.60;99.90
26304;DHT22;70693;48.680;8.890;2023-06-26T07:35:15;21.60;99.90
26304;DHT22;70693;48.680;8.890;2023-06-26T07:37:41;21.60;99.90
26304;DHT22;70693;48.680;8.890;2023-06-26T07:40:08;21.60;99.90
26304;DHT22;70693;48.680;8.890;2023-06-26T07:42:33;21.60;99.90
26304;DHT22;70693;48.680;8.890;2023-06-26T07:44:59;21.60;99.90
26304;DHT22;70693;48.680;8.890;2023-06-26T07:47:25;21.60;99.90
26304;DHT22;70693;48.680;8.890;2023-06-26T07:49:50;21.60;99.90
26304;DHT22;70693;48.680;8.890;2023-06-26T07:52:17;21.70;99.90
26304;DHT22;70693;48.680;8.890;2023-06-26T07:54:43;21.60;99.90
26304;DHT22;70693;48.680;8.890;2023-06-26T07:57:09;21.70;99.90
26304;DHT22;70693;48.680;8.890;2023-06-26T07:59:35;21.60;99.90
26304;DHT22;70693;48.680;8.890;2023-06-26T08:02:01;21.60;99.90
26304;DHT22;70693;48.680;8.890;2023-06-26T08:04:28;21.60;99.90
26304;DHT22;70693;48.680;8.890;2023-06-26T08:06:58;21.70;99.90
26304;DHT22;70693;48.680;8.890;2023-06-26T08:09:25;21.70;99.90
26304;DHT22;70693;48.680;8.890;2023-06-26T08:11:52;21.60;99.90
26304;DHT22;70693;48.680;8.890;2023-06-26T08:14:18;21.60;99.90
26304;DHT22;70693;48.680;8.890;2023-06-26T08:16:44;21.60;99.90
26304;DHT22;70693;48.680;8.890;2023-06-26T08:19:11;21.60;99.90
26304;DHT22;70693;48.680;8.890;2023-06-26T08:21:36;21.70;99.90
26304;DHT22;70693;48.680;8.890;2023-06-26T08:24:03;21.70;99.90
26304;DHT22;70693;48.680;8.890;2023-06-26T08:26:29;21.70;99.90
26304;DHT22;70693;48.680;8.890;2023-06-26T08:28:55;21.70;99.90
26304;DHT22;70693;48.680;8.890;2023-06-26T08:31:20;21.70;99.90
26304;DHT22;70693;48.680;8.890;2023-06-26T08:33:47;21.70;99.90
26304;DHT22;70693;48.680;8.890;2023-06-26T08:36:12;21.70;99.90
26304;DHT22;70693;48.680;8.890;2023-06-26T08:38:38;21.80;99.90
26304;DHT22;70693;48.680;8.890;2023-06-26T08:41:09;21.80;99.90
26304;DHT22;70693;48.680;8.890;2023-06-26T08:43:35;21.80;99.90
26304;DHT22;70693;48.680;8.890;2023-06-26T08:46:02;21.80;99.90
26304;DHT22;70693;48.680;8.890;2023-06-26T08:48:32;21.80;99.90
26304;DHT22;70693;48.680;8.890;2023-06-26T08:51:01;21.80;99.90
26304;DHT22;70693;48.680;8.890;2023-06-26T08:55:54;21.80;99.90
26304;DHT22;70693;48.680;8.890;2023-06-26T08:58:22;21.80;99.90
26304;DHT22;70693;48.680;8.890;2023-06-26T09:00:48;21.80;99.90
26304;DHT22;70693;48.680;8.890;2023-06-26T09:03:15;21.80;99.90
26304;DHT22;70693;48.680;8.890;2023-06-26T09:05:41;21.80;99.90
26304;DHT22;70693;48.680;8.890;2023-06-26T09:08:07;21.80;99.90
26304;DHT22;70693;48.680;8.890;2023-06-26T09:10:32;21.80;99.90
26304;DHT22;70693;48.680;8.890;2023-06-26T09:12:58;21.90;99.90
26304;DHT22;70693;48.680;8.890;2023-06-26T09:15:26;21.80;99.90
26304;DHT22;70693;48.680;8.890;2023-06-26T09:17:56;21.80;99.90
26304;DHT22;70693;48.680;8.890;2023-06-26T09:20:23;21.80;99.90
26304;DHT22;70693;48.680;8.890;2023-06-26T09:22:48;21.90;99.90
26304;DHT22;70693;48.680;8.890;2023-06-26T09:25:16;21.90;99.90
26304;DHT22;70693;48.680;8.890;2023-06-26T09:27:43;21.90;99.90
26304;DHT22;70693;48.680;8.890;2023-06-26T09:30:09;21.80;99.90
26304;DHT22;70693;48.680;8.890;2023-06-26T09:32:36;21.90;99.90
26304;DHT22;70693;48.680;8.890;2023-06-26T09:35:04;21.90;99.90
26304;DHT22;70693;48.680;8.890;2023-06-26T09:37:30;21.90;99.90
26304;DHT22;70693;48.680;8.890;2023-06-26T09:39:56;21.90;99.90
26304;DHT22;70693;48.680;8.890;2023-06-26T09:42:23;21.90;99.90
26304;DHT22;70693;48.680;8.890;2023-06-26T09:44:49;21.90;99.90
26304;DHT22;70693;48.680;8.890;2023-06-26T09:47:17;21.90;99.90
26304;DHT22;70693;48.680;8.890;2023-06-26T09:49:43;21.90;99.90
26304;DHT22;70693;48.680;8.890;2023-06-26T09:52:09;21.90;99.90
26304;DHT22;70693;48.680;8.890;2023-06-26T09:54:35;21.90;99.90
26304;DHT22;70693;48.680;8.890;2023-06-26T09:57:12;21.90;99.90
26304;DHT22;70693;48.680;8.890;2023-06-26T09:59:39;22.00;99.90
26304;DHT22;70693;48.680;8.890;2023-06-26T10:02:05;22.20;99.90
26304;DHT22;70693;48.680;8.890;2023-06-26T10:04:32;22.40;99.90
26304;DHT22;70693;48.680;8.890;2023-06-26T10:07:00;22.60;99.90
26304;DHT22;70693;48.680;8.890;2023-06-26T10:09:27;22.70;99.90
26304;DHT22;70693;48.680;8.890;2023-06-26T10:12:01;22.80;99.80
26304;DHT22;70693;48.680;8.890;2023-06-26T10:14:31;23.00;99.70
26304;DHT22;70693;48.680;8.890;2023-06-26T10:17:00;23.20;99.70
26304;DHT22;70693;48.680;8.890;2023-06-26T10:19:27;23.40;99.90
26304;DHT22;70693;48.680;8.890;2023-06-26T10:21:54;23.50;99.90
26304;DHT22;70693;48.680;8.890;2023-06-26T10:24:23;23.60;99.90
26304;DHT22;70693;48.680;8.890;2023-06-26T10:26:52;23.80;99.90
26304;DHT22;70693;48.680;8.890;2023-06-26T10:29:21;23.80;99.90
26304;DHT22;70693;48.680;8.890;2023-06-26T10:31:51;23.90;99.90
26304;DHT22;70693;48.680;8.890;2023-06-26T10:34:18;24.00;99.90
26304;DHT22;70693;48.680;8.890;2023-06-26T10:36:43;24.10;99.90
26304;DHT22;70693;48.680;8.890;2023-06-26T10:39:09;24.10;99.90
26304;DHT22;70693;48.680;8.890;2023-06-26T10:41:39;24.20;99.90
26304;DHT22;70693;48.680;8.890;2023-06-26T10:44:16;24.20;99.90
26304;DHT22;70693;48.680;8.890;2023-06-26T10:46:52;24.30;99.90
26304;DHT22;70693;48.680;8.890;2023-06-26T10:49:19;24.40;99.90
26304;DHT22;70693;48.680;8.890;2023-06-26T10:51:47;24.40;99.90
26304;DHT22;70693;48.680;8.890;2023-06-26T10:54:19;24.40;99.90
26304;DHT22;70693;48.680;8.890;2023-06-26T10:56:49;24.50;99.90
26304;DHT22;70693;48.680;8.890;2023-06-26T10:59:19;24.50;99.90
26304;DHT22;70693;48.680;8.890;2023-06-26T11:01:57;24.60;99.90
26304;DHT22;70693;48.680;8.890;2023-06-26T11:04:47;24.60;99.90
26304;DHT22;70693;48.680;8.890;2023-06-26T11:07:16;24.60;99.90
26304;DHT22;70693;48.680;8.890;2023-06-26T11:12:38;24.70;99.90
26304;DHT22;70693;48.680;8.890;2023-06-26T11:15:14;24.80;99.90
26304;DHT22;70693;48.680;8.890;2023-06-26T11:17:41;24.70;99.80
26304;DHT22;70693;48.680;8.890;2023-06-26T11:20:11;24.70;99.90
26304;DHT22;70693;48.680;8.890;2023-06-26T11:22:39;24.70;99.90
26304;DHT22;70693;48.680;8.890;2023-06-26T11:25:06;24.80;99.90
26304;DHT22;70693;48.680;8.890;2023-06-26T11:27:39;24.80;99.90
26304;DHT22;70693;48.680;8.890;2023-06-26T11:30:06;24.90;99.90
26304;DHT22;70693;48.680;8.890;2023-06-26T11:32:32;24.90;99.90
26304;DHT22;70693;48.680;8.890;2023-06-26T11:35:01;24.90;99.90
26304;DHT22;70693;48.680;8.890;2023-06-26T11:37:27;24.90;99.90
26304;DHT22;70693;48.680;8.890;2023-06-26T11:39:53;24.90;99.90
26304;DHT22;70693;48.680;8.890;2023-06-26T11:42:20;25.00;99.90
26304;DHT22;70693;48.680;8.890;2023-06-26T11:44:47;25.00;99.90
26304;DHT22;70693;48.680;8.890;2023-06-26T11:47:17;24.90;99.90
26304;DHT22;70693;48.680;8.890;2023-06-26T11:49:48;24.90;99.90
26304;DHT22;70693;48.680;8.890;2023-06-26T11:52:15;24.80;99.90
26304;DHT22;70693;48.680;8.890;2023-06-26T11:54:42;24.70;99.90
26304;DHT22;70693;48.680;8.890;2023-06-26T11:57:08;24.60;99.90
26304;DHT22;70693;48.680;8.890;2023-06-26T11:59:35;24.50;99.90
26304;DHT22;70693;48.680;8.890;2023-06-26T12:02:11;24.50;99.90
26304;DHT22;70693;48.680;8.890;2023-06-26T12:04:40;24.50;99.90
26304;DHT22;70693;48.680;8.890;2023-06-26T12:07:07;24.40;99.90
26304;DHT22;70693;48.680;8.890;2023-06-26T12:09:46;24.40;99.90
26304;DHT22;70693;48.680;8.890;2023-06-26T12:12:16;24.30;99.90
26304;DHT22;70693;48.680;8.890;2023-06-26T12:14:42;24.30;99.90
26304;DHT22;70693;48.680;8.890;2023-06-26T12:17:12;24.20;99.90
26304;DHT22;70693;48.680;8.890;2023-06-26T12:19:42;24.10;99.90
26304;DHT22;70693;48.680;8.890;2023-06-26T12:22:09;24.10;99.90
26304;DHT22;70693;48.680;8.890;2023-06-26T12:24:38;24.10;99.90
26304;DHT22;70693;48.680;8.890;2023-06-26T12:27:09;24.10;99.90
26304;DHT22;70693;48.680;8.890;2023-06-26T12:29:36;24.00;99.90
26304;DHT22;70693;48.680;8.890;2023-06-26T12:32:01;24.00;99.90
26304;DHT22;70693;48.680;8.890;2023-06-26T12:34:33;24.00;99.90
26304;DHT22;70693;48.680;8.890;2023-06-26T12:37:10;24.00;99.90
26304;DHT22;70693;48.680;8.890;2023-06-26T12:39:48;23.90;99.90
26304;DHT22;70693;48.680;8.890;2023-06-26T12:42:24;23.90;99.90
26304;DHT22;70693;48.680;8.890;2023-06-26T12:44:50;23.90;99.90
26304;DHT22;70693;48.680;8.890;2023-06-26T12:47:18;23.90;99.90
26304;DHT22;70693;48.680;8.890;2023-06-26T12:49:45;23.90;99.90
26304;DHT22;70693;48.680;8.890;2023-06-26T12:52:12;23.80;99.90
26304;DHT22;70693;48.680;8.890;2023-06-26T12:54:42;23.80;99.90
26304;DHT22;70693;48.680;8.890;2023-06-26T12:57:09;23.80;99.90
26304;DHT22;70693;48.680;8.890;2023-06-26T12:59:38;23.80;99.90
26304;DHT22;70693;48.680;8.890;2023-06-26T13:02:04;23.80;99.90
26304;DHT22;70693;48.680;8.890;2023-06-26T13:04:30;23.80;99.90
26304;DHT22;70693;48.680;8.890;2023-06-26T13:06:56;23.80;99.90
26304;DHT22;70693;48.680;8.890;2023-06-26T13:09:23;23.80;99.90
26304;DHT22;70693;48.680;8.890;2023-06-26T13:11:50;23.80;99.90
26304;DHT22;70693;48.680;8.890;2023-06-26T13:14:16;23.80;99.90
26304;DHT22;70693;48.680;8.890;2023-06-26T13:16:42;23.80;99.90
26304;DHT22;70693;48.680;8.890;2023-06-26T13:19:07;23.80;99.90
26304;DHT22;70693;48.680;8.890;2023-06-26T13:21:34;23.80;99.90
26304;DHT22;70693;48.680;8.890;2023-06-26T13:24:00;23.80;99.90
26304;DHT22;70693;48.680;8.890;2023-06-26T13:26:26;23.80;99.90
26304;DHT22;70693;48.680;8.890;2023-06-26T13:28:54;23.70;99.90
26304;DHT22;70693;48.680;8.890;2023-06-26T13:31:20;23.70;99.90
26304;DHT22;70693;48.680;8.890;2023-06-26T13:33:46;23.70;99.90
26304;DHT22;70693;48.680;8.890;2023-06-26T13:36:14;23.70;99.90
26304;DHT22;70693;48.680;8.890;2023-06-26T13:38:40;23.70;99.90
26304;DHT22;70693;48.680;8.890;2023-06-26T13:41:05;23.70;99.90
26304;DHT22;70693;48.680;8.890;2023-06-26T13:43:31;23.70;99.90
26304;DHT22;70693;48.680;8.890;2023-06-26T13:45:57;23.70;99.90
26304;DHT22;70693;48.680;8.890;2023-06-26T13:48:22;23.70;99.90
26304;DHT22;70693;48.680;8.890;2023-06-26T13:50:51;23.60;99.90
26304;DHT22;70693;48.680;8.890;2023-06-26T13:53:17;23.60;99.90
26304;DHT22;70693;48.680;8.890;2023-06-26T13:55:43;23.70;99.90
26304;DHT22;70693;48.680;8.890;2023-06-26T13:58:09;23.70;99.90
26304;DHT22;70693;48.680;8.890;2023-06-26T14:00:36;23.60;99.90
26304;DHT22;70693;48.680;8.890;2023-06-26T14:03:03;23.60;99.90
26304;DHT22;70693;48.680;8.890;2023-06-26T14:05:38;23.60;99.90
26304;DHT22;70693;48.680;8.890;2023-06-26T14:08:06;23.60;99.90
26304;DHT22;70693;48.680;8.890;2023-06-26T14:10:32;23.60;99.90
26304;DHT22;70693;48.680;8.890;2023-06-26T14:13:02;23.60;99.90
26304;DHT22;70693;48.680;8.890;2023-06-26T14:15:30;23.60;99.90
26304;DHT22;70693;48.680;8.890;2023-06-26T14:17:56;23.60;99.90
26304;DHT22;70693;48.680;8.890;2023-06-26T14:20:22;23.50;99.90
26304;DHT22;70693;48.680;8.890;2023-06-26T14:22:48;23.50;99.90
26304;DHT22;70693;48.680;8.890;2023-06-26T14:25:14;23.50;99.90
26304;DHT22;70693;48.680;8.890;2023-06-26T14:27:40;23.50;99.90
26304;DHT22;70693;48.680;8.890;2023-06-26T14:30:07;23.50;99.90
26304;DHT22;70693;48.680;8.890;2023-06-26T14:32:33;23.50;99.90
26304;DHT22;70693;48.680;8.890;2023-06-26T14:34:59;23.50;99.90
26304;DHT22;70693;48.680;8.890;2023-06-26T14:37:25;23.50;99.90
26304;DHT22;70693;48.680;8.890;2023-06-26T14:39:51;23.60;99.90
26304;DHT22;70693;48.680;8.890;2023-06-26T14:42:17;23.50;99.90
26304;DHT22;70693;48.680;8.890;2023-06-26T14:44:42;23.50;99.90
26304;DHT22;70693;48.680;8.890;2023-06-26T14:47:08;23.50;99.90
26304;DHT22;70693;48.680;8.890;2023-06-26T14:49:34;23.50;99.90
26304;DHT22;70693;48.680;8.890;2023-06-26T14:51:59;23.50;99.90
26304;DHT22;70693;48.680;8.890;2023-06-26T14:54:25;23.50;99.90
26304;DHT22;70693;48.680;8.890;2023-06-26T14:56:51;23.50;99.90
26304;DHT22;70693;48.680;8.890;2023-06-26T14:59:16;23.50;99.90
26304;DHT22;70693;48.680;8.890;2023-06-26T15:01:42;23.50;99.90
26304;DHT22;70693;48.680;8.890;2023-06-26T15:04:08;23.50;99.90
26304;DHT22;70693;48.680;8.890;2023-06-26T15:06:34;23.50;99.90
26304;DHT22;70693;48.680;8.890;2023-06-26T15:09:00;23.40;99.90
26304;DHT22;70693;48.680;8.890;2023-06-26T15:11:26;23.50;99.90
26304;DHT22;70693;48.680;8.890;2023-06-26T15:13:52;23.60;99.90
26304;DHT22;70693;48.680;8.890;2023-06-26T15:16:17;23.80;99.90
26304;DHT22;70693;48.680;8.890;2023-06-26T15:18:43;23.90;99.90
26304;DHT22;70693;48.680;8.890;2023-06-26T15:21:09;24.00;99.80
26304;DHT22;70693;48.680;8.890;2023-06-26T15:23:35;24.10;99.80
26304;DHT22;70693;48.680;8.890;2023-06-26T15:26:00;24.10;99.90
26304;DHT22;70693;48.680;8.890;2023-06-26T15:28:26;24.20;99.90
26304;DHT22;70693;48.680;8.890;2023-06-26T15:30:52;24.20;99.90
26304;DHT22;70693;48.680;8.890;2023-06-26T15:33:17;24.30;99.90
26304;DHT22;70693;48.680;8.890;2023-06-26T15:35:43;24.30;99.90
26304;DHT22;70693;48.680;8.890;2023-06-26T15:38:09;24.40;99.90